sensor_id;sensor_type;location;lat;lon;timestamp;pressure;altitude;pressure_sealevel;temperature;humidity
13594;BME280;6449;47.666;9.160;2023-01-28T00:01:29;97395.81;;;1.10;100.00
13594;BME280;6449;47.666;9.160;2023-01-28T00:06:24;97399.31;;;1.09;100.00
13594;BME280;6449;47.666;9.160;2023-01-28T00:11:17;97397.13;;;0.95;100.00
13594;BME280;6449;47.666;9.160;2023-01-28T00:16:13;97387.13;;;0.84;100.00
13594;BME280;6449;47.666;9.160;2023-01-28T00:21:09;97387.53;;;0.70;100.00
13594;BME280;6449;47.666;9.160;2023-01-28T00:26:08;97384.31;;;0.92;100.00
13594;BME280;6449;47.666;9.160;2023-01-28T00:31:07;97388.44;;;0.69;100.00
13594;BME280;6449;47.666;9.160;2023-01-28T00:36:03;97382.97;;;0.78;100.00
13594;BME280;6449;47.666;9.160;2023-01-28T00:41:08;97384.78;;;0.76;100.00
13594;BME280;6449;47.666;9.160;2023-01-28T00:46:03;97394.28;;;0.74;100.00
13594;BME280;6449;47.666;9.160;2023-01-28T00:50:56;97402.78;;;0.78;100.00
13594;BME280;6449;47.666;9.160;2023-01-28T00:55:50;97397.66;;;0.76;100.00
13594;BME280;6449;47.666;9.160;2023-01-28T01:00:45;97397.56;;;0.79;100.00
13594;BME280;6449;47.666;9.160;2023-01-28T01:05:39;97397.97;;;0.66;100.00
13594;BME280;6449;47.666;9.160;2023-01-28T01:10:34;97391.94;;;0.67;100.00
13594;BME280;6449;47.666;9.160;2023-01-28T01:15:29;97399.72;;;0.65;100.00
13594;BME280;6449;47.666;9.160;2023-01-28T01:20:27;97394.84;;;0.84;100.00
13594;BME280;6449;47.666;9.160;2023-01-28T01:25:21;97404.13;;;0.91;100.00
13594;BME280;6449;47.666;9.160;2023-01-28T01:30:18;97393.72;;;0.65;100.00
13594;BME280;6449;47.666;9.160;2023-01-28T01:35:14;97394.50;;;0.67;100.00
13594;BME280;6449;47.666;9.160;2023-01-28T01:40:11;97395.03;;;0.78;100.00
13594;BME280;6449;47.666;9.160;2023-01-28T01:45:07;97407.09;;;0.77;100.00
13594;BME280;6449;47.666;9.160;2023-01-28T01:50:17;97409.38;;;0.59;100.00
13594;BME280;6449;47.666;9.160;2023-01-28T01:55:20;97415.91;;;0.70;100.00
13594;BME280;6449;47.666;9.160;2023-01-28T02:00:17;97410.88;;;0.95;100.00
13594;BME280;6449;47.666;9.160;2023-01-28T02:05:16;97412.47;;;0.99;100.00
13594;BME280;6449;47.666;9.160;2023-01-28T02:10:11;97412.09;;;1.12;100.00
13594;BME280;6449;47.666;9.160;2023-01-28T02:15:10;97414.34;;;1.22;100.00
13594;BME280;6449;47.666;9.160;2023-01-28T02:20:10;97411.44;;;1.07;100.00
13594;BME280;6449;47.666;9.160;2023-01-28T02:30:52;97423.47;;;1.06;100.00
13594;BME280;6449;47.666;9.160;2023-01-28T02:35:53;97414.88;;;1.05;100.00
13594;BME280;6449;47.666;9.160;2023-01-28T02:40:53;97421.31;;;1.20;100.00
13594;BME280;6449;47.666;9.160;2023-01-28T02:45:59;97416.28;;;1.16;100.00
13594;BME280;6449;47.666;9.160;2023-01-28T02:51:23;97417.56;;;1.02;100.00
13594;BME280;6449;47.666;9.160;2023-01-28T02:56:36;97413.72;;;1.16;100.00
13594;BME280;6449;47.666;9.160;2023-01-28T03:01:43;97415.72;;;1.06;100.00
13594;BME280;6449;47.666;9.160;2023-01-28T03:06:43;97416.75;;;1.00;100.00
13594;BME280;6449;47.666;9.160;2023-01-28T03:11:41;97418.84;;;0.88;100.00
13594;BME280;6449;47.666;9.160;2023-01-28T03:17:00;97418.53;;;0.98;100.00
13594;BME280;6449;47.666;9.160;2023-01-28T03:22:11;97413.91;;;1.10;100.00
13594;BME280;6449;47.666;9.160;2023-01-28T03:27:28;97418.78;;;0.89;100.00
13594;BME280;6449;47.666;9.160;2023-01-28T03:32:45;97426.88;;;1.08;100.00
13594;BME280;6449;47.666;9.160;2023-01-28T03:37:56;97423.97;;;0.89;100.00
13594;BME280;6449;47.666;9.160;2023-01-28T03:42:51;97431.06;;;1.11;100.00
13594;BME280;6449;47.666;9.160;2023-01-28T03:47:46;97429.91;;;1.21;100.00
13594;BME280;6449;47.666;9.160;2023-01-28T03:52:39;97432.88;;;1.09;100.00
13594;BME280;6449;47.666;9.160;2023-01-28T03:57:33;97431.06;;;1.11;100.00
13594;BME280;6449;47.666;9.160;2023-01-28T04:02:26;97427.34;;;1.21;100.00
13594;BME280;6449;47.666;9.160;2023-01-28T04:07:21;97429.13;;;1.19;100.00
13594;BME280;6449;47.666;9.160;2023-01-28T04:12:15;97430.19;;;1.12;100.00
13594;BME280;6449;47.666;9.160;2023-01-28T04:17:09;97430.53;;;0.99;100.00
13594;BME280;6449;47.666;9.160;2023-01-28T04:22:09;97434.28;;;0.89;100.00
13594;BME280;6449;47.666;9.160;2023-01-28T04:27:04;97436.66;;;0.97;100.00
13594;BME280;6449;47.666;9.160;2023-01-28T04:31:58;97434.50;;;1.11;100.00
13594;BME280;6449;47.666;9.160;2023-01-28T04:36:52;97443.97;;;1.11;100.00
13594;BME280;6449;47.666;9.160;2023-01-28T04:41:46;97446.63;;;1.09;100.00
13594;BME280;6449;47.666;9.160;2023-01-28T04:46:40;97450.00;;;1.11;100.00
13594;BME280;6449;47.666;9.160;2023-01-28T04:51:34;97445.41;;;1.21;100.00
13594;BME280;6449;47.666;9.160;2023-01-28T04:56:28;97448.34;;;1.09;100.00
13594;BME280;6449;47.666;9.160;2023-01-28T05:01:21;97455.13;;;1.13;100.00
13594;BME280;6449;47.666;9.160;2023-01-28T05:06:17;97461.31;;;1.07;100.00
13594;BME280;6449;47.666;9.160;2023-01-28T05:11:11;97470.03;;;1.03;100.00
13594;BME280;6449;47.666;9.160;2023-01-28T05:16:06;97476.94;;;1.02;100.00
13594;BME280;6449;47.666;9.160;2023-01-28T05:20:59;97478.25;;;1.17;100.00
13594;BME280;6449;47.666;9.160;2023-01-28T05:25:54;97484.75;;;0.99;100.00
13594;BME280;6449;47.666;9.160;2023-01-28T05:30:47;97490.88;;;0.95;100.00
13594;BME280;6449;47.666;9.160;2023-01-28T05:35:41;97484.03;;;0.94;100.00
13594;BME280;6449;47.666;9.160;2023-01-28T05:40:35;97487.09;;;1.09;100.00
13594;BME280;6449;47.666;9.160;2023-01-28T05:45:30;97493.09;;;0.78;100.00
13594;BME280;6449;47.666;9.160;2023-01-28T05:50:23;97489.91;;;0.70;100.00
13594;BME280;6449;47.666;9.160;2023-01-28T05:55:17;97498.38;;;0.73;100.00
13594;BME280;6449;47.666;9.160;2023-01-28T06:00:13;97494.72;;;0.82;100.00
13594;BME280;6449;47.666;9.160;2023-01-28T06:05:09;97496.06;;;0.95;100.00
13594;BME280;6449;47.666;9.160;2023-01-28T06:10:04;97496.81;;;0.99;100.00
13594;BME280;6449;47.666;9.160;2023-01-28T06:14:57;97509.41;;;1.10;100.00
13594;BME280;6449;47.666;9.160;2023-01-28T06:19:51;97512.78;;;1.13;100.00
13594;BME280;6449;47.666;9.160;2023-01-28T06:24:46;97510.38;;;1.07;100.00
13594;BME280;6449;47.666;9.160;2023-01-28T06:29:39;97520.94;;;0.98;100.00
13594;BME280;6449;47.666;9.160;2023-01-28T06:34:33;97521.75;;;1.00;100.00
13594;BME280;6449;47.666;9.160;2023-01-28T06:39:26;97516.91;;;1.19;100.00
13594;BME280;6449;47.666;9.160;2023-01-28T06:44:24;97527.19;;;1.20;100.00
13594;BME280;6449;47.666;9.160;2023-01-28T06:49:17;97527.38;;;1.14;100.00
13594;BME280;6449;47.666;9.160;2023-01-28T06:54:11;97534.03;;;1.23;100.00
13594;BME280;6449;47.666;9.160;2023-01-28T06:59:05;97534.16;;;1.17;100.00
13594;BME280;6449;47.666;9.160;2023-01-28T07:03:59;97544.78;;;1.06;100.00
13594;BME280;6449;47.666;9.160;2023-01-28T07:08:53;97543.78;;;1.12;100.00
13594;BME280;6449;47.666;9.160;2023-01-28T07:13:46;97543.47;;;1.22;100.00
13594;BME280;6449;47.666;9.160;2023-01-28T07:18:40;97546.94;;;1.23;100.00
13594;BME280;6449;47.666;9.160;2023-01-28T07:23:34;97556.63;;;1.15;100.00
13594;BME280;6449;47.666;9.160;2023-01-28T07:28:28;97556.53;;;1.18;100.00
13594;BME280;6449;47.666;9.160;2023-01-28T07:33:22;97563.47;;;1.16;100.00
13594;BME280;6449;47.666;9.160;2023-01-28T07:38:18;97569.88;;;1.02;100.00
13594;BME280;6449;47.666;9.160;2023-01-28T07:43:14;97574.88;;;1.09;100.00
13594;BME280;6449;47.666;9.160;2023-01-28T07:48:11;97572.16;;;1.13;100.00
13594;BME280;6449;47.666;9.160;2023-01-28T07:53:07;97576.72;;;1.03;100.00
13594;BME280;6449;47.666;9.160;2023-01-28T07:58:04;97583.63;;;1.03;100.00
13594;BME280;6449;47.666;9.160;2023-01-28T08:03:01;97589.00;;;1.26;100.00
13594;BME280;6449;47.666;9.160;2023-01-28T08:07:55;97591.75;;;1.20;100.00
13594;BME280;6449;47.666;9.160;2023-01-28T08:12:53;97602.00;;;1.23;100.00
13594;BME280;6449;47.666;9.160;2023-01-28T08:17:47;97612.16;;;1.29;100.00
13594;BME280;6449;47.666;9.160;2023-01-28T08:22:42;97608.03;;;1.24;100.00
13594;BME280;6449;47.666;9.160;2023-01-28T08:27:35;97608.75;;;1.27;100.00
13594;BME280;6449;47.666;9.160;2023-01-28T08:32:29;97624.31;;;1.26;100.00
13594;BME280;6449;47.666;9.160;2023-01-28T08:37:23;97618.97;;;1.32;100.00
13594;BME280;6449;47.666;9.160;2023-01-28T08:42:18;97635.66;;;1.20;100.00
13594;BME280;6449;47.666;9.160;2023-01-28T08:47:12;97639.00;;;1.24;100.00
13594;BME280;6449;47.666;9.160;2023-01-28T08:52:05;97632.16;;;1.21;100.00
13594;BME280;6449;47.666;9.160;2023-01-28T08:56:58;97633.63;;;1.31;100.00
13594;BME280;6449;47.666;9.160;2023-01-28T09:01:53;97634.56;;;1.29;100.00
13594;BME280;6449;47.666;9.160;2023-01-28T09:06:47;97639.75;;;1.27;100.00
13594;BME280;6449;47.666;9.160;2023-01-28T09:11:40;97639.97;;;1.20;100.00
13594;BME280;6449;47.666;9.160;2023-01-28T09:16:34;97641.53;;;1.25;100.00
13594;BME280;6449;47.666;9.160;2023-01-28T09:21:28;97649.13;;;1.31;100.00
13594;BME280;6449;47.666;9.160;2023-01-28T09:26:22;97654.16;;;1.36;100.00
13594;BME280;6449;47.666;9.160;2023-01-28T09:31:15;97651.63;;;1.35;100.00
13594;BME280;6449;47.666;9.160;2023-01-28T09:36:10;97652.84;;;1.21;100.00
13594;BME280;6449;47.666;9.160;2023-01-28T09:41:24;97646.41;;;1.36;100.00
13594;BME280;6449;47.666;9.160;2023-01-28T09:46:18;97659.94;;;1.77;100.00
13594;BME280;6449;47.666;9.160;2023-01-28T09:51:28;97663.13;;;2.15;100.00
13594;BME280;6449;47.666;9.160;2023-01-28T09:56:29;97662.59;;;2.03;100.00
13594;BME280;6449;47.666;9.160;2023-01-28T10:01:42;97677.06;;;1.79;100.00
13594;BME280;6449;47.666;9.160;2023-01-28T10:06:49;97674.41;;;1.82;100.00
13594;BME280;6449;47.666;9.160;2023-01-28T10:12:04;97655.47;;;1.82;100.00
13594;BME280;6449;47.666;9.160;2023-01-28T10:17:11;97652.03;;;2.11;100.00
13594;BME280;6449;47.666;9.160;2023-01-28T10:22:12;97638.91;;;2.45;100.00
13594;BME280;6449;47.666;9.160;2023-01-28T10:27:15;97637.19;;;2.44;100.00
13594;BME280;6449;47.666;9.160;2023-01-28T10:32:21;97644.44;;;2.33;100.00
13594;BME280;6449;47.666;9.160;2023-01-28T10:37:17;97648.66;;;2.37;100.00
13594;BME280;6449;47.666;9.160;2023-01-28T10:42:25;97643.66;;;2.31;100.00
13594;BME280;6449;47.666;9.160;2023-01-28T10:47:30;97641.34;;;2.22;100.00
13594;BME280;6449;47.666;9.160;2023-01-28T10:52:25;97645.63;;;2.23;100.00
13594;BME280;6449;47.666;9.160;2023-01-28T10:57:20;97645.63;;;1.95;100.00
13594;BME280;6449;47.666;9.160;2023-01-28T11:02:28;97646.56;;;1.92;100.00
13594;BME280;6449;47.666;9.160;2023-01-28T11:07:23;97641.41;;;1.92;100.00
13594;BME280;6449;47.666;9.160;2023-01-28T11:12:22;97651.75;;;1.91;100.00
13594;BME280;6449;47.666;9.160;2023-01-28T11:17:20;97653.63;;;1.86;100.00
13594;BME280;6449;47.666;9.160;2023-01-28T11:22:26;97650.88;;;1.92;100.00
13594;BME280;6449;47.666;9.160;2023-01-28T11:27:28;97659.09;;;1.75;100.00
13594;BME280;6449;47.666;9.160;2023-01-28T11:32:25;97652.25;;;1.74;100.00
13594;BME280;6449;47.666;9.160;2023-01-28T11:37:21;97652.91;;;1.80;100.00
13594;BME280;6449;47.666;9.160;2023-01-28T11:42:18;97650.97;;;1.89;100.00
13594;BME280;6449;47.666;9.160;2023-01-28T11:47:39;97648.34;;;1.90;100.00
13594;BME280;6449;47.666;9.160;2023-01-28T11:52:54;97644.13;;;1.86;100.00
13594;BME280;6449;47.666;9.160;2023-01-28T11:58:17;97645.66;;;1.93;100.00
13594;BME280;6449;47.666;9.160;2023-01-28T12:03:42;97638.75;;;1.94;100.00
13594;BME280;6449;47.666;9.160;2023-01-28T12:08:47;97642.78;;;2.02;100.00
13594;BME280;6449;47.666;9.160;2023-01-28T12:13:57;97637.84;;;1.95;100.00
13594;BME280;6449;47.666;9.160;2023-01-28T12:19:19;97635.03;;;2.02;100.00
13594;BME280;6449;47.666;9.160;2023-01-28T12:24:36;97630.94;;;1.95;100.00
13594;BME280;6449;47.666;9.160;2023-01-28T12:29:42;97630.34;;;1.87;100.00
13594;BME280;6449;47.666;9.160;2023-01-28T12:35:28;97633.63;;;1.92;100.00
13594;BME280;6449;47.666;9.160;2023-01-28T12:41:00;97637.19;;;1.88;100.00
13594;BME280;6449;47.666;9.160;2023-01-28T12:46:01;97632.56;;;1.99;100.00
13594;BME280;6449;47.666;9.160;2023-01-28T12:51:04;97633.41;;;2.00;100.00
13594;BME280;6449;47.666;9.160;2023-01-28T12:56:06;97633.09;;;1.81;100.00
13594;BME280;6449;47.666;9.160;2023-01-28T13:01:08;97640.72;;;1.86;100.00
13594;BME280;6449;47.666;9.160;2023-01-28T13:06:11;97639.59;;;1.94;100.00
13594;BME280;6449;47.666;9.160;2023-01-28T13:11:14;97635.81;;;1.76;100.00
13594;BME280;6449;47.666;9.160;2023-01-28T13:16:11;97635.34;;;1.92;100.00
13594;BME280;6449;47.666;9.160;2023-01-28T13:21:13;97646.97;;;2.06;100.00
13594;BME280;6449;47.666;9.160;2023-01-28T13:26:28;97645.34;;;2.04;100.00
13594;BME280;6449;47.666;9.160;2023-01-28T13:31:23;97652.47;;;1.96;100.00
13594;BME280;6449;47.666;9.160;2023-01-28T13:36:26;97643.94;;;1.94;100.00
13594;BME280;6449;47.666;9.160;2023-01-28T13:41:20;97656.03;;;1.92;100.00
13594;BME280;6449;47.666;9.160;2023-01-28T13:46:28;97665.22;;;1.72;100.00
13594;BME280;6449;47.666;9.160;2023-01-28T13:51:30;97671.13;;;1.77;100.00
13594;BME280;6449;47.666;9.160;2023-01-28T13:56:30;97675.03;;;1.91;100.00
13594;BME280;6449;47.666;9.160;2023-01-28T14:01:55;97674.28;;;1.87;100.00
13594;BME280;6449;47.666;9.160;2023-01-28T14:13:05;97681.81;;;1.95;100.00
13594;BME280;6449;47.666;9.160;2023-01-28T14:18:14;97689.75;;;1.89;100.00
13594;BME280;6449;47.666;9.160;2023-01-28T14:23:16;97685.16;;;1.98;100.00
13594;BME280;6449;47.666;9.160;2023-01-28T14:28:19;97686.22;;;1.91;100.00
13594;BME280;6449;47.666;9.160;2023-01-28T14:33:16;97689.88;;;1.84;100.00
13594;BME280;6449;47.666;9.160;2023-01-28T14:38:16;97696.47;;;1.94;100.00
13594;BME280;6449;47.666;9.160;2023-01-28T14:43:18;97694.78;;;1.93;100.00
13594;BME280;6449;47.666;9.160;2023-01-28T14:48:23;97701.72;;;1.91;100.00
13594;BME280;6449;47.666;9.160;2023-01-28T14:53:34;97704.19;;;1.96;100.00
13594;BME280;6449;47.666;9.160;2023-01-28T14:58:39;97716.19;;;1.98;100.00
13594;BME280;6449;47.666;9.160;2023-01-28T15:03:34;97716.94;;;2.02;100.00
13594;BME280;6449;47.666;9.160;2023-01-28T15:08:37;97726.41;;;2.03;100.00
13594;BME280;6449;47.666;9.160;2023-01-28T15:13:37;97725.38;;;2.08;100.00
13594;BME280;6449;47.666;9.160;2023-01-28T15:18:34;97731.97;;;1.89;100.00
13594;BME280;6449;47.666;9.160;2023-01-28T15:23:32;97732.56;;;1.99;100.00
13594;BME280;6449;47.666;9.160;2023-01-28T15:28:30;97735.44;;;1.88;100.00
13594;BME280;6449;47.666;9.160;2023-01-28T15:33:26;97727.50;;;1.94;100.00
13594;BME280;6449;47.666;9.160;2023-01-28T15:38:20;97730.50;;;1.79;100.00
13594;BME280;6449;47.666;9.160;2023-01-28T15:43:21;97742.97;;;1.96;100.00
13594;BME280;6449;47.666;9.160;2023-01-28T15:48:16;97744.81;;;1.92;100.00
13594;BME280;6449;47.666;9.160;2023-01-28T15:53:12;97757.59;;;1.97;100.00
13594;BME280;6449;47.666;9.160;2023-01-28T15:58:28;97750.72;;;1.96;100.00
13594;BME280;6449;47.666;9.160;2023-01-28T16:03:22;97771.59;;;1.90;100.00
13594;BME280;6449;47.666;9.160;2023-01-28T16:08:26;97773.25;;;1.92;100.00
13594;BME280;6449;47.666;9.160;2023-01-28T16:13:23;97780.72;;;2.01;100.00
13594;BME280;6449;47.666;9.160;2023-01-28T16:18:28;97782.09;;;1.83;100.00
13594;BME280;6449;47.666;9.160;2023-01-28T16:23:26;97793.22;;;1.87;100.00
13594;BME280;6449;47.666;9.160;2023-01-28T16:28:19;97800.63;;;1.99;100.00
13594;BME280;6449;47.666;9.160;2023-01-28T16:33:18;97799.97;;;1.91;100.00
13594;BME280;6449;47.666;9.160;2023-01-28T16:38:13;97797.38;;;1.91;100.00
13594;BME280;6449;47.666;9.160;2023-01-28T16:43:12;97801.75;;;1.89;100.00
13594;BME280;6449;47.666;9.160;2023-01-28T16:48:07;97810.00;;;2.03;100.00
13594;BME280;6449;47.666;9.160;2023-01-28T16:53:00;97804.41;;;1.86;100.00
13594;BME280;6449;47.666;9.160;2023-01-28T16:57:56;97813.69;;;1.95;100.00
13594;BME280;6449;47.666;9.160;2023-01-28T17:02:53;97817.94;;;1.96;100.00
13594;BME280;6449;47.666;9.160;2023-01-28T17:07:48;97824.38;;;1.81;100.00
13594;BME280;6449;47.666;9.160;2023-01-28T17:12:42;97826.09;;;1.82;100.00
13594;BME280;6449;47.666;9.160;2023-01-28T17:17:35;97829.97;;;1.98;100.00
13594;BME280;6449;47.666;9.160;2023-01-28T17:22:30;97828.63;;;1.83;100.00
13594;BME280;6449;47.666;9.160;2023-01-28T17:27:24;97833.56;;;1.93;100.00
13594;BME280;6449;47.666;9.160;2023-01-28T17:32:17;97847.56;;;1.84;100.00
13594;BME280;6449;47.666;9.160;2023-01-28T17:37:10;97846.84;;;1.79;100.00
13594;BME280;6449;47.666;9.160;2023-01-28T17:42:05;97858.69;;;1.88;100.00
13594;BME280;6449;47.666;9.160;2023-01-28T17:46:59;97864.47;;;1.97;100.00
13594;BME280;6449;47.666;9.160;2023-01-28T17:51:52;97861.44;;;1.81;100.00
13594;BME280;6449;47.666;9.160;2023-01-28T17:56:46;97872.41;;;1.90;100.00
13594;BME280;6449;47.666;9.160;2023-01-28T18:01:43;97879.63;;;1.77;100.00
13594;BME280;6449;47.666;9.160;2023-01-28T18:06:38;97870.78;;;1.87;100.00
13594;BME280;6449;47.666;9.160;2023-01-28T18:11:32;97863.97;;;1.83;100.00
13594;BME280;6449;47.666;9.160;2023-01-28T18:16:26;97868.09;;;1.90;100.00
13594;BME280;6449;47.666;9.160;2023-01-28T18:21:31;97867.13;;;1.94;100.00
13594;BME280;6449;47.666;9.160;2023-01-28T18:26:43;97878.53;;;1.87;100.00
13594;BME280;6449;47.666;9.160;2023-01-28T18:31:39;97881.34;;;1.78;100.00
13594;BME280;6449;47.666;9.160;2023-01-28T18:36:35;97877.78;;;1.82;100.00
13594;BME280;6449;47.666;9.160;2023-01-28T18:41:28;97877.63;;;1.88;100.00
13594;BME280;6449;47.666;9.160;2023-01-28T18:46:22;97890.41;;;1.94;100.00
13594;BME280;6449;47.666;9.160;2023-01-28T18:51:15;97884.34;;;1.95;100.00
13594;BME280;6449;47.666;9.160;2023-01-28T18:56:22;97891.72;;;1.75;100.00
13594;BME280;6449;47.666;9.160;2023-01-28T19:01:15;97878.84;;;1.73;100.00
13594;BME280;6449;47.666;9.160;2023-01-28T19:06:10;97882.06;;;1.83;100.00
13594;BME280;6449;47.666;9.160;2023-01-28T19:11:07;97889.13;;;1.76;100.00
13594;BME280;6449;47.666;9.160;2023-01-28T19:16:04;97890.78;;;1.79;100.00
13594;BME280;6449;47.666;9.160;2023-01-28T19:21:01;97900.44;;;1.72;100.00
13594;BME280;6449;47.666;9.160;2023-01-28T19:25:55;97901.50;;;1.64;100.00
13594;BME280;6449;47.666;9.160;2023-01-28T19:30:48;97904.13;;;1.62;100.00
13594;BME280;6449;47.666;9.160;2023-01-28T19:35:43;97907.69;;;1.56;100.00
13594;BME280;6449;47.666;9.160;2023-01-28T19:40:37;97904.19;;;1.59;100.00
13594;BME280;6449;47.666;9.160;2023-01-28T19:45:31;97895.81;;;1.49;100.00
13594;BME280;6449;47.666;9.160;2023-01-28T19:50:24;97895.03;;;1.46;100.00
13594;BME280;6449;47.666;9.160;2023-01-28T19:55:19;97893.72;;;1.64;100.00
13594;BME280;6449;47.666;9.160;2023-01-28T20:00:13;97888.75;;;1.56;100.00
13594;BME280;6449;47.666;9.160;2023-01-28T20:05:08;97897.47;;;1.52;100.00
13594;BME280;6449;47.666;9.160;2023-01-28T20:10:02;97904.56;;;1.42;100.00
13594;BME280;6449;47.666;9.160;2023-01-28T20:14:56;97897.03;;;1.33;100.00
13594;BME280;6449;47.666;9.160;2023-01-28T20:19:50;97898.66;;;1.39;100.00
13594;BME280;6449;47.666;9.160;2023-01-28T20:24:43;97897.28;;;1.22;100.00
13594;BME280;6449;47.666;9.160;2023-01-28T20:29:37;97886.69;;;1.35;100.00
13594;BME280;6449;47.666;9.160;2023-01-28T20:34:33;97884.31;;;1.25;100.00
13594;BME280;6449;47.666;9.160;2023-01-28T20:39:27;97904.06;;;1.28;100.00
13594;BME280;6449;47.666;9.160;2023-01-28T20:44:22;97911.94;;;1.22;100.00
13594;BME280;6449;47.666;9.160;2023-01-28T20:49:15;97901.59;;;1.22;100.00
13594;BME280;6449;47.666;9.160;2023-01-28T20:54:10;97900.84;;;1.18;100.00
13594;BME280;6449;47.666;9.160;2023-01-28T20:59:05;97901.44;;;1.29;100.00
13594;BME280;6449;47.666;9.160;2023-01-28T21:03:59;97907.41;;;1.31;100.00
13594;BME280;6449;47.666;9.160;2023-01-28T21:08:52;97901.72;;;1.17;100.00
13594;BME280;6449;47.666;9.160;2023-01-28T21:13:47;97906.47;;;0.97;100.00
13594;BME280;6449;47.666;9.160;2023-01-28T21:18:41;97902.97;;;0.99;100.00
13594;BME280;6449;47.666;9.160;2023-01-28T21:23:35;97903.06;;;0.95;100.00
13594;BME280;6449;47.666;9.160;2023-01-28T21:28:28;97909.28;;;0.86;100.00
13594;BME280;6449;47.666;9.160;2023-01-28T21:33:23;97907.75;;;0.76;100.00
13594;BME280;6449;47.666;9.160;2023-01-28T21:38:17;97904.34;;;0.74;100.00
13594;BME280;6449;47.666;9.160;2023-01-28T21:43:10;97906.81;;;0.80;100.00
13594;BME280;6449;47.666;9.160;2023-01-28T21:48:05;97910.47;;;0.68;100.00
13594;BME280;6449;47.666;9.160;2023-01-28T21:53:00;97908.66;;;0.75;100.00
13594;BME280;6449;47.666;9.160;2023-01-28T21:57:54;97911.78;;;0.89;100.00
13594;BME280;6449;47.666;9.160;2023-01-28T22:03:07;97912.56;;;0.93;100.00
13594;BME280;6449;47.666;9.160;2023-01-28T22:08:02;97922.81;;;0.96;100.00
13594;BME280;6449;47.666;9.160;2023-01-28T22:12:56;97926.53;;;0.83;100.00
13594;BME280;6449;47.666;9.160;2023-01-28T22:17:49;97929.09;;;0.84;100.00
13594;BME280;6449;47.666;9.160;2023-01-28T22:22:43;97924.50;;;0.98;100.00
13594;BME280;6449;47.666;9.160;2023-01-28T22:27:37;97935.97;;;0.84;100.00
13594;BME280;6449;47.666;9.160;2023-01-28T22:32:31;97927.69;;;0.68;100.00
13594;BME280;6449;47.666;9.160;2023-01-28T22:37:24;97919.53;;;0.89;100.00
13594;BME280;6449;47.666;9.160;2023-01-28T22:42:18;97910.13;;;0.85;100.00
13594;BME280;6449;47.666;9.160;2023-01-28T22:47:12;97903.38;;;0.79;100.00
13594;BME280;6449;47.666;9.160;2023-01-28T22:52:06;97902.72;;;0.70;100.00
13594;BME280;6449;47.666;9.160;2023-01-28T22:56:59;97905.28;;;0.71;100.00
13594;BME280;6449;47.666;9.160;2023-01-28T23:01:53;97901.88;;;0.69;100.00
13594;BME280;6449;47.666;9.160;2023-01-28T23:06:47;97898.19;;;0.81;100.00
13594;BME280;6449;47.666;9.160;2023-01-28T23:11:41;97904.28;;;0.77;100.00
13594;BME280;6449;47.666;9.160;2023-01-28T23:16:34;97900.59;;;0.89;100.00
13594;BME280;6449;47.666;9.160;2023-01-28T23:21:47;97902.97;;;0.99;100.00
13594;BME280;6449;47.666;9.160;2023-01-28T23:26:59;97907.00;;;1.13;100.00
13594;BME280;6449;47.666;9.160;2023-01-28T23:31:57;97902.06;;;1.00;100.00
13594;BME280;6449;47.666;9.160;2023-01-28T23:36:53;97901.31;;;0.97;100.00
13594;BME280;6449;47.666;9.160;2023-01-28T23:41:47;97908.53;;;0.81;100.00
13594;BME280;6449;47.666;9.160;2023-01-28T23:46:40;97910.25;;;0.79;100.00
13594;BME280;6449;47.666;9.160;2023-01-28T23:51:33;97920.03;;;1.07;100.00
13594;BME280;6449;47.666;9.160;2023-01-28T23:56:28;97913.72;;;0.78;100.00
